Angora, Nebraska
Current Conditions -  °F | °C
As of 2:53 PM on Wednesday 28 Jan 2015 (Local Time) from KAIA Reporting Station
Few Clouds Few Clouds  
Wind Chill: 53°   Ceiling: Unl
Heat Index: 53°   Visibility: 10mi
Dew Point: 30°   Wind: 23mph
Humidity: 41%   Direction: 340°NNW
Pressure: 30"   Gusts: 36mph
Location:  41.85°N, 103.13°W
Report Text: KAIA 282153Z AUTO 34020G31KT 10SM FEW070 FEW095 12/M01 A3000 RMK AO2 PK WND 32040/2138 SLP157 T01171011
Loading
Personal Weather Stations






























Interactive Weather Map New forecast layout! Learn more

10-Day Weather Forecast

Advertisements
Track Severe Weather on mobile